Time;durP1;ratioP1;P1;durP2;ratioP2;P2;SDS_P1;SDS_P2;PMS_P1;PMS_P2;Temp;Humidity;BMP_temperature;BMP_pressure;BME280_temperature;BME280_humidity;BME280_pressure;Samples;Min_cycle;Max_cycle;Signal;HPM_P1;HPM_P2
2023/03/27 00:00:40;;;;;;;6.87;1.57;;;4.20;99.90;;;;;;4998912;28;20203;-69
2023/03/27 00:03:05;;;;;;;3.60;1.87;;;4.10;99.90;;;;;;4998908;28;20243;-68
2023/03/27 00:05:31;;;;;;;7.60;2.17;;;4.10;99.90;;;;;;4993381;28;20211;-69
2023/03/27 00:07:56;;;;;;;8.77;1.60;;;4.10;99.90;;;;;;4989200;28;20211;-69
2023/03/27 00:10:23;;;;;;;2.83;1.70;;;4.10;99.90;;;;;;4988619;28;20738;-69
2023/03/27 00:12:49;;;;;;;3.93;1.63;;;4.00;99.90;;;;;;4989099;28;20207;-68
2023/03/27 00:15:16;;;;;;;6.37;1.87;;;4.00;99.90;;;;;;4988589;28;20662;-70
2023/03/27 00:17:43;;;;;;;6.17;2.10;;;3.90;99.90;;;;;;4988489;28;20235;-68
2023/03/27 00:20:09;;;;;;;3.43;1.87;;;4.00;99.90;;;;;;4987688;28;20603;-68
2023/03/27 00:22:34;;;;;;;4.60;1.83;;;4.00;99.90;;;;;;4987804;28;20960;-68
2023/03/27 00:25:01;;;;;;;8.17;2.33;;;4.00;99.90;;;;;;4988628;28;20193;-68
2023/03/27 00:27:26;;;;;;;4.87;1.50;;;3.90;99.90;;;;;;4988538;28;20693;-70
2023/03/27 00:29:52;;;;;;;4.27;1.87;;;3.80;99.90;;;;;;4986612;28;20212;-68
2023/03/27 00:32:18;;;;;;;5.93;1.80;;;3.80;99.90;;;;;;4988403;28;20211;-68
2023/03/27 00:34:44;;;;;;;3.97;1.60;;;3.80;99.90;;;;;;4988248;28;20578;-68
2023/03/27 00:37:09;;;;;;;4.57;1.67;;;3.70;99.90;;;;;;4988809;28;20207;-68
2023/03/27 00:39:35;;;;;;;4.60;2.50;;;3.70;99.90;;;;;;4988863;28;20215;-68
2023/03/27 00:42:00;;;;;;;2.47;1.47;;;3.80;99.90;;;;;;4988602;28;20204;-68
2023/03/27 00:44:36;;;;;;;5.60;1.73;;;3.80;99.90;;;;;;4986423;28;20212;-68
2023/03/27 00:47:02;;;;;;;5.37;1.93;;;3.70;99.90;;;;;;4988106;28;20204;-68
2023/03/27 00:49:32;;;;;;;3.97;1.97;;;3.80;99.90;;;;;;4987744;28;20562;-68
2023/03/27 00:51:59;;;;;;;4.43;1.90;;;3.80;99.90;;;;;;4987602;28;20294;-69
2023/03/27 00:54:28;;;;;;;6.27;2.23;;;3.70;99.90;;;;;;4988432;28;20197;-69
2023/03/27 00:56:57;;;;;;;7.07;2.27;;;3.70;99.90;;;;;;4988460;28;20204;-68
2023/03/27 00:59:27;;;;;;;4.47;1.63;;;3.60;99.90;;;;;;4988178;28;20255;-69
2023/03/27 01:01:52;;;;;;;3.97;1.83;;;3.60;99.90;;;;;;4987120;28;20675;-70
2023/03/27 01:04:20;;;;;;;2.27;1.40;;;3.60;99.90;;;;;;4988086;28;20273;-69
2023/03/27 01:06:48;;;;;;;3.90;2.13;;;3.60;99.90;;;;;;4987628;28;20215;-68
2023/03/27 01:09:14;;;;;;;4.23;2.17;;;3.50;99.90;;;;;;4987320;28;20251;-69
2023/03/27 01:12:05;;;;;;;5.43;2.30;;;3.50;99.90;;;;;;4986241;28;20240;-68
2023/03/27 01:14:57;;;;;;;3.80;1.87;;;3.40;99.90;;;;;;4987776;28;20235;-68
2023/03/27 01:17:36;;;;;;;5.13;1.90;;;3.40;99.90;;;;;;4984851;28;20209;-69
2023/03/27 01:20:19;;;;;;;2.87;2.20;;;3.30;99.90;;;;;;4988145;28;20670;-69
2023/03/27 01:22:59;;;;;;;5.30;1.60;;;3.30;99.90;;;;;;4988032;28;20297;-69
2023/03/27 01:26:01;;;;;;;8.90;1.60;;;3.30;99.90;;;;;;4987533;28;20249;-68
2023/03/27 01:28:41;;;;;;;5.03;1.80;;;3.30;99.90;;;;;;4986499;28;20239;-68
2023/03/27 01:31:27;;;;;;;3.27;1.53;;;3.40;99.90;;;;;;4987729;28;20211;-68
2023/03/27 01:34:07;;;;;;;5.43;1.77;;;3.50;99.90;;;;;;4969423;28;20301;-68
2023/03/27 01:36:59;;;;;;;2.67;1.40;;;3.60;99.90;;;;;;4984453;28;20567;-68
2023/03/27 01:39:47;;;;;;;5.30;2.17;;;3.60;99.90;;;;;;4985322;28;20623;-68
2023/03/27 01:42:50;;;;;;;4.20;1.93;;;3.70;99.90;;;;;;4987351;28;20723;-67
2023/03/27 01:45:35;;;;;;;1.70;1.43;;;3.60;99.90;;;;;;4956195;28;20545;-67
2023/03/27 01:48:15;;;;;;;1.70;1.40;;;3.70;99.90;;;;;;4986426;28;20228;-66
2023/03/27 01:50:48;;;;;;;1.83;1.67;;;3.70;99.90;;;;;;4991255;28;20196;-67
2023/03/27 01:53:21;;;;;;;2.17;1.33;;;3.70;99.90;;;;;;4996455;28;20200;-68
2023/03/27 01:55:52;;;;;;;4.93;1.63;;;3.60;99.90;;;;;;4995534;28;20826;-66
2023/03/27 01:58:27;;;;;;;2.53;1.83;;;3.50;99.90;;;;;;4994624;28;20214;-68
2023/03/27 02:00:56;;;;;;;3.03;1.70;;;3.50;99.90;;;;;;4986259;28;20249;-67
2023/03/27 02:03:32;;;;;;;4.10;1.53;;;3.50;99.90;;;;;;4986292;28;20215;-68
2023/03/27 02:06:17;;;;;;;4.00;1.37;;;3.40;99.90;;;;;;4986104;28;20239;-68
2023/03/27 02:08:56;;;;;;;3.70;1.80;;;3.50;99.90;;;;;;4986172;28;20216;-69
2023/03/27 02:11:26;;;;;;;5.00;1.97;;;3.50;99.90;;;;;;4986560;28;20285;-67
2023/03/27 02:14:04;;;;;;;5.03;2.50;;;3.50;99.90;;;;;;4986732;28;20753;-67
2023/03/27 02:16:33;;;;;;;3.87;2.47;;;3.50;99.90;;;;;;4986608;28;20675;-68
2023/03/27 02:19:03;;;;;;;5.63;2.30;;;3.50;99.90;;;;;;4985111;28;20250;-68
2023/03/27 02:21:30;;;;;;;5.67;1.83;;;3.50;99.90;;;;;;4987113;28;20281;-68
2023/03/27 02:23:56;;;;;;;7.97;4.90;;;3.40;99.90;;;;;;4987248;28;20247;-68
2023/03/27 02:26:21;;;;;;;3.97;2.07;;;3.40;99.90;;;;;;4987309;28;20231;-68
2023/03/27 02:29:06;;;;;;;4.27;1.77;;;3.40;99.90;;;;;;4986845;28;20302;-68
2023/03/27 02:31:56;;;;;;;8.90;3.73;;;3.30;99.90;;;;;;4990428;28;20204;-68
2023/03/27 02:34:30;;;;;;;11.47;4.13;;;3.30;99.90;;;;;;4984403;28;20224;-67
2023/03/27 02:37:04;;;;;;;3.43;1.30;;;3.20;99.90;;;;;;4987105;28;20301;-67
2023/03/27 02:39:35;;;;;;;3.23;2.53;;;3.10;99.90;;;;;;4985665;28;20302;-67
2023/03/27 02:42:17;;;;;;;2.93;2.20;;;3.10;99.90;;;;;;4986981;28;20588;-68
2023/03/27 02:44:53;;;;;;;2.13;1.20;;;3.00;99.90;;;;;;4985836;28;20207;-67
2023/03/27 02:47:35;;;;;;;2.97;1.90;;;3.00;99.90;;;;;;4984255;28;20206;-65
2023/03/27 02:50:09;;;;;;;1.93;1.60;;;2.90;99.90;;;;;;4987227;28;20299;-67
2023/03/27 02:52:40;;;;;;;1.67;1.33;;;2.80;99.90;;;;;;4986032;28;20556;-67
2023/03/27 02:55:19;;;;;;;1.57;1.40;;;2.80;99.90;;;;;;4985823;28;20233;-67
2023/03/27 02:57:50;;;;;;;1.43;1.03;;;2.70;99.90;;;;;;4984293;28;20198;-67
2023/03/27 03:00:19;;;;;;;1.20;1.10;;;2.70;99.90;;;;;;4986879;28;20217;-68
2023/03/27 03:02:48;;;;;;;1.23;1.00;;;2.70;99.90;;;;;;4987044;28;20214;-67
2023/03/27 03:05:19;;;;;;;3.87;1.10;;;2.80;99.90;;;;;;4984203;28;20655;-67
2023/03/27 03:07:46;;;;;;;1.27;1.03;;;2.90;99.90;;;;;;4986263;28;20226;-66
2023/03/27 03:10:12;;;;;;;1.90;1.03;;;2.90;99.90;;;;;;4985713;28;20672;-66
2023/03/27 03:12:38;;;;;;;1.90;1.00;;;2.90;99.90;;;;;;4985275;28;20615;-66
2023/03/27 03:15:06;;;;;;;1.53;1.10;;;2.80;99.90;;;;;;4983716;28;20226;-67
2023/03/27 03:17:32;;;;;;;1.53;0.90;;;2.70;99.90;;;;;;4986357;28;20205;-67
2023/03/27 03:19:57;;;;;;;2.47;1.00;;;2.70;99.90;;;;;;4986720;28;20193;-67
2023/03/27 03:22:23;;;;;;;2.87;1.30;;;2.70;99.90;;;;;;4986359;28;20379;-67
2023/03/27 03:24:49;;;;;;;15.77;1.60;;;2.60;99.90;;;;;;4986458;28;20720;-66
2023/03/27 03:27:19;;;;;;;1.10;1.00;;;2.60;99.90;;;;;;4986505;28;20199;-66
2023/03/27 03:29:45;;;;;;;1.40;0.93;;;2.60;99.90;;;;;;4985561;28;20709;-66
2023/03/27 03:32:11;;;;;;;1.97;1.20;;;2.60;99.90;;;;;;4986022;28;20257;-66
2023/03/27 03:34:36;;;;;;;1.40;1.30;;;2.50;99.90;;;;;;4985586;28;21130;-68
2023/03/27 03:37:02;;;;;;;2.57;1.50;;;2.40;99.90;;;;;;4985701;28;20330;-68
2023/03/27 03:39:28;;;;;;;1.57;1.47;;;2.40;99.90;;;;;;4984365;28;20227;-68
2023/03/27 03:41:53;;;;;;;2.60;1.27;;;2.30;99.90;;;;;;4985173;28;20980;-68
2023/03/27 03:44:19;;;;;;;1.50;1.40;;;2.20;99.90;;;;;;4984544;28;20213;-67
2023/03/27 03:46:44;;;;;;;4.83;2.37;;;2.20;99.90;;;;;;4985329;28;20513;-68
2023/03/27 03:49:10;;;;;;;1.27;1.17;;;2.10;99.90;;;;;;4985537;28;20282;-68
2023/03/27 03:51:36;;;;;;;4.63;1.87;;;2.10;99.90;;;;;;4984940;28;20696;-67
2023/03/27 03:54:04;;;;;;;1.77;1.40;;;2.00;99.90;;;;;;4983817;28;20207;-67
2023/03/27 03:56:30;;;;;;;4.57;1.53;;;2.00;99.90;;;;;;4985957;28;20297;-67
2023/03/27 03:58:56;;;;;;;1.33;1.23;;;2.00;99.90;;;;;;4986136;28;20220;-67
2023/03/27 04:01:22;;;;;;;2.13;1.37;;;2.00;99.90;;;;;;4985951;28;20219;-67
2023/03/27 04:03:49;;;;;;;1.50;1.40;;;2.00;99.90;;;;;;4984450;28;20661;-66
2023/03/27 04:06:20;;;;;;;3.20;1.50;;;1.90;99.90;;;;;;4987941;28;20894;-67
2023/03/27 04:08:46;;;;;;;2.17;1.17;;;1.90;99.90;;;;;;4987784;28;20775;-67
2023/03/27 04:11:12;;;;;;;3.43;1.40;;;1.90;99.90;;;;;;4989065;28;20206;-67
2023/03/27 04:13:37;;;;;;;1.37;1.23;;;1.80;99.90;;;;;;4988818;28;20569;-67
2023/03/27 04:16:03;;;;;;;6.03;1.33;;;1.80;99.90;;;;;;4987042;28;20199;-67
2023/03/27 04:18:31;;;;;;;1.93;1.40;;;1.80;99.90;;;;;;4988990;28;20206;-67
2023/03/27 04:20:57;;;;;;;1.50;1.40;;;1.80;99.90;;;;;;4988104;28;20972;-67
2023/03/27 04:23:32;;;;;;;4.23;1.10;;;1.70;99.90;;;;;;4988771;28;20280;-67
2023/03/27 04:25:59;;;;;;;4.97;1.73;;;1.80;99.90;;;;;;4987046;28;20357;-66
2023/03/27 04:28:33;;;;;;;3.80;1.40;;;1.80;99.90;;;;;;4987445;28;20979;-66
2023/03/27 04:31:05;;;;;;;3.13;1.63;;;1.70;99.90;;;;;;4970560;28;20670;-66
2023/03/27 04:33:31;;;;;;;2.33;1.70;;;1.70;99.90;;;;;;4987090;28;20314;-66
2023/03/27 04:35:59;;;;;;;2.50;1.27;;;1.70;99.90;;;;;;4988947;28;20245;-68
2023/03/27 04:38:25;;;;;;;2.83;1.87;;;1.60;99.90;;;;;;4989045;28;20211;-67
2023/03/27 04:40:51;;;;;;;5.73;1.67;;;1.60;99.90;;;;;;4989095;28;20206;-67
2023/03/27 04:43:16;;;;;;;2.13;1.73;;;1.70;99.90;;;;;;4988886;28;20196;-68
2023/03/27 04:45:47;;;;;;;1.67;1.57;;;1.70;99.90;;;;;;4982175;28;20204;-68
2023/03/27 04:48:13;;;;;;;4.80;2.70;;;1.60;99.90;;;;;;4988000;28;20220;-67
2023/03/27 04:50:40;;;;;;;1.60;1.50;;;1.60;99.90;;;;;;4991044;28;20260;-66
2023/03/27 04:53:07;;;;;;;4.57;1.90;;;1.60;99.90;;;;;;4986963;28;20200;-67
2023/03/27 04:55:36;;;;;;;2.10;1.30;;;1.60;99.90;;;;;;4987841;28;20197;-67
2023/03/27 04:58:06;;;;;;;1.90;1.40;;;1.50;99.90;;;;;;4987699;28;20256;-68
2023/03/27 05:00:32;;;;;;;3.53;1.30;;;1.50;99.90;;;;;;4987452;28;20198;-68
2023/03/27 05:02:59;;;;;;;1.53;1.40;;;1.50;99.90;;;;;;4988762;28;20660;-67
2023/03/27 05:05:25;;;;;;;3.40;1.70;;;1.50;99.90;;;;;;4984762;28;20604;-66
2023/03/27 05:07:51;;;;;;;2.10;1.70;;;1.40;99.90;;;;;;4989178;28;20264;-67
2023/03/27 05:10:17;;;;;;;1.97;1.57;;;1.40;99.90;;;;;;4985602;28;20674;-69
2023/03/27 05:12:46;;;;;;;1.30;1.20;;;1.40;99.90;;;;;;4989627;28;20230;-67
2023/03/27 05:15:13;;;;;;;1.50;1.30;;;1.40;99.90;;;;;;4985136;28;20204;-67
2023/03/27 05:17:40;;;;;;;1.90;1.70;;;1.30;99.90;;;;;;4986372;28;20207;-68
2023/03/27 05:20:07;;;;;;;1.03;0.90;;;1.30;99.90;;;;;;4987528;28;20197;-66
2023/03/27 05:22:33;;;;;;;1.90;1.53;;;1.20;99.90;;;;;;4986429;28;20234;-68
2023/03/27 05:24:59;;;;;;;2.20;1.37;;;1.20;99.90;;;;;;4987966;28;20419;-69
2023/03/27 05:27:25;;;;;;;1.50;1.40;;;1.20;99.90;;;;;;4985158;28;20198;-69
2023/03/27 05:29:50;;;;;;;2.40;1.70;;;1.20;99.90;;;;;;4987845;28;20216;-68
2023/03/27 05:32:16;;;;;;;3.03;1.80;;;1.20;99.90;;;;;;4987777;28;20287;-68
2023/03/27 05:34:42;;;;;;;1.37;1.27;;;1.20;99.90;;;;;;4987354;28;20566;-69
2023/03/27 05:37:08;;;;;;;4.53;1.67;;;1.30;99.90;;;;;;4987853;28;20621;-76
2023/03/27 05:39:35;;;;;;;5.17;1.60;;;1.30;99.90;;;;;;4984093;28;20206;-76
2023/03/27 05:42:02;;;;;;;2.43;1.63;;;1.30;99.90;;;;;;4975743;28;20211;-69
2023/03/27 05:44:27;;;;;;;5.90;2.37;;;1.40;99.90;;;;;;4977649;28;20203;-71
2023/03/27 05:46:53;;;;;;;2.67;2.07;;;1.40;99.90;;;;;;4978246;28;21407;-69
2023/03/27 05:49:19;;;;;;;6.80;1.63;;;1.40;99.90;;;;;;4980514;28;20240;-69
2023/03/27 05:51:44;;;;;;;1.70;1.60;;;1.50;99.90;;;;;;4988932;28;20291;-86
2023/03/27 05:54:10;;;;;;;2.07;1.67;;;1.50;99.90;;;;;;4991306;28;20229;-87
2023/03/27 05:56:36;;;;;;;3.43;1.50;;;1.60;99.90;;;;;;4990059;28;20267;-71
2023/03/27 05:59:02;;;;;;;3.23;1.70;;;1.70;99.90;;;;;;4986896;28;20644;-72
2023/03/27 06:01:27;;;;;;;1.60;1.50;;;1.80;99.90;;;;;;4986290;28;20285;-71
2023/03/27 06:03:54;;;;;;;3.67;1.83;;;1.80;99.90;;;;;;4987125;28;20343;-70
2023/03/27 06:06:20;;;;;;;1.53;1.43;;;1.90;99.90;;;;;;4985089;28;20199;-72
2023/03/27 06:08:46;;;;;;;2.87;1.73;;;1.90;99.90;;;;;;4985688;28;20227;-70
2023/03/27 06:11:16;;;;;;;1.90;1.80;;;2.00;99.90;;;;;;4987619;28;20202;-70
2023/03/27 06:13:42;;;;;;;3.10;1.67;;;2.00;99.90;;;;;;4987326;28;20202;-70
2023/03/27 06:16:09;;;;;;;2.40;1.63;;;2.10;99.90;;;;;;4985972;28;20214;-70
2023/03/27 06:18:34;;;;;;;4.30;1.33;;;2.10;99.90;;;;;;4985775;28;20227;-69
2023/03/27 06:21:00;;;;;;;3.73;1.60;;;2.10;99.90;;;;;;4986225;28;20717;-69
2023/03/27 06:23:26;;;;;;;2.80;2.37;;;2.10;99.90;;;;;;4985586;28;20209;-72
2023/03/27 06:25:52;;;;;;;1.87;1.67;;;2.20;99.90;;;;;;4988038;28;20766;-78
2023/03/27 06:28:18;;;;;;;2.50;2.30;;;2.20;99.90;;;;;;4985356;28;20231;-79
2023/03/27 06:30:45;;;;;;;4.83;2.00;;;2.30;99.90;;;;;;4984830;28;20219;-77
2023/03/27 06:33:11;;;;;;;3.30;1.90;;;2.50;99.90;;;;;;4985625;28;20205;-78
2023/03/27 06:35:38;;;;;;;2.33;1.90;;;2.80;99.90;;;;;;4985383;28;20201;-84
2023/03/27 06:38:05;;;;;;;3.13;1.83;;;2.80;99.90;;;;;;4986686;28;20292;-81
2023/03/27 06:40:34;;;;;;;3.23;1.57;;;3.00;99.90;;;;;;4987092;28;20253;-77
2023/03/27 06:43:02;;;;;;;2.03;1.63;;;3.10;99.90;;;;;;4983751;28;20741;-77
2023/03/27 06:45:31;;;;;;;1.77;1.57;;;3.10;99.90;;;;;;4986198;28;20234;-72
2023/03/27 06:47:58;;;;;;;1.47;1.37;;;3.00;99.90;;;;;;4985100;28;20212;-71
2023/03/27 06:50:26;;;;;;;4.53;1.87;;;2.90;99.90;;;;;;4985306;28;20247;-72
2023/03/27 06:52:52;;;;;;;1.37;1.27;;;2.90;99.90;;;;;;4990526;28;20581;-76
2023/03/27 06:55:20;;;;;;;4.07;1.97;;;3.00;99.90;;;;;;4999528;28;20231;-83
2023/03/27 06:57:48;;;;;;;1.60;1.10;;;3.10;99.90;;;;;;4987340;28;20228;-74
2023/03/27 07:00:17;;;;;;;1.73;1.63;;;3.10;99.90;;;;;;4985441;28;20200;-72
2023/03/27 07:02:44;;;;;;;2.60;1.83;;;3.00;99.90;;;;;;4988101;28;20200;-74
2023/03/27 07:05:09;;;;;;;3.73;1.73;;;2.80;99.90;;;;;;4978967;28;20840;-75
2023/03/27 07:07:35;;;;;;;6.23;1.70;;;2.70;99.90;;;;;;4985645;28;20231;-76
2023/03/27 07:10:01;;;;;;;5.73;1.60;;;2.70;99.90;;;;;;4986832;28;20582;-76
2023/03/27 07:12:26;;;;;;;2.93;1.60;;;2.80;99.90;;;;;;4985318;28;20335;-74
2023/03/27 07:14:51;;;;;;;3.23;1.77;;;3.00;99.90;;;;;;4985187;28;20651;-76
2023/03/27 07:17:17;;;;;;;1.63;1.53;;;3.10;99.90;;;;;;4979890;28;20299;-77
2023/03/27 07:19:43;;;;;;;1.90;1.53;;;3.30;99.90;;;;;;4976398;28;20212;-74
2023/03/27 07:22:08;;;;;;;4.10;1.53;;;3.30;99.90;;;;;;4982987;28;20213;-75
2023/03/27 07:24:34;;;;;;;1.50;1.40;;;3.20;99.90;;;;;;4995440;28;20722;-74
2023/03/27 07:27:00;;;;;;;2.30;1.43;;;3.20;99.90;;;;;;4995405;28;20215;-73
2023/03/27 07:29:26;;;;;;;3.17;1.57;;;3.20;99.90;;;;;;4992541;28;20254;-74
2023/03/27 07:31:51;;;;;;;2.60;1.60;;;3.20;99.90;;;;;;4995160;28;20204;-73
2023/03/27 07:34:17;;;;;;;4.53;2.03;;;3.30;99.90;;;;;;4989736;28;20741;-73
2023/03/27 07:36:43;;;;;;;4.53;1.63;;;3.40;99.90;;;;;;4992913;28;20511;-73
2023/03/27 07:39:11;;;;;;;2.07;1.70;;;3.40;99.90;;;;;;4995902;28;20302;-76
2023/03/27 07:41:36;;;;;;;3.70;1.90;;;3.50;99.90;;;;;;4999368;28;20218;-76
2023/03/27 07:44:02;;;;;;;1.33;1.23;;;3.50;99.90;;;;;;4997997;28;20671;-76
2023/03/27 07:46:28;;;;;;;2.70;1.73;;;3.50;99.90;;;;;;4998291;28;20274;-67
2023/03/27 07:48:55;;;;;;;1.50;1.40;;;3.60;99.90;;;;;;4988711;28;20227;-68
2023/03/27 07:51:21;;;;;;;1.50;1.40;;;3.70;99.90;;;;;;4987709;28;20212;-67
2023/03/27 07:53:48;;;;;;;2.07;1.10;;;3.70;99.90;;;;;;4990255;28;20283;-67
2023/03/27 07:56:13;;;;;;;3.37;1.53;;;3.80;99.90;;;;;;4989087;28;20737;-66
2023/03/27 07:58:39;;;;;;;1.53;1.20;;;3.80;99.90;;;;;;4988133;28;20204;-67
2023/03/27 08:01:05;;;;;;;2.97;1.90;;;3.80;99.90;;;;;;4989441;28;20657;-65
2023/03/27 08:03:30;;;;;;;1.30;1.20;;;3.80;99.90;;;;;;4987412;28;20203;-76
2023/03/27 08:05:58;;;;;;;4.73;1.40;;;3.80;99.90;;;;;;4994081;28;20206;-77
2023/03/27 08:08:24;;;;;;;0.93;0.93;;;3.90;99.90;;;;;;4998707;28;20670;-77
2023/03/27 08:10:53;;;;;;;1.10;1.00;;;4.00;99.90;;;;;;4998848;28;20199;-77
2023/03/27 08:13:19;;;;;;;3.07;1.60;;;4.00;99.90;;;;;;4996586;28;20293;-71
2023/03/27 08:15:44;;;;;;;2.20;1.37;;;4.00;99.90;;;;;;4977992;28;20950;-69
2023/03/27 08:18:10;;;;;;;2.20;1.37;;;4.00;99.90;;;;;;4980099;28;20683;-70
2023/03/27 08:20:37;;;;;;;2.90;1.33;;;3.90;99.90;;;;;;4981105;28;20196;-71
2023/03/27 08:23:03;;;;;;;2.57;1.10;;;4.10;99.90;;;;;;4981310;28;20201;-67
2023/03/27 08:25:32;;;;;;;2.20;1.27;;;4.50;99.90;;;;;;4981176;28;20205;-66
2023/03/27 08:27:58;;;;;;;2.67;1.20;;;4.70;99.90;;;;;;4978020;28;20549;-67
2023/03/27 08:30:24;;;;;;;1.37;1.00;;;4.60;99.90;;;;;;4979960;28;20295;-67
2023/03/27 08:32:50;;;;;;;2.87;1.27;;;4.70;99.90;;;;;;4979974;28;20502;-67
2023/03/27 08:35:17;;;;;;;1.27;1.10;;;4.60;99.90;;;;;;4979872;28;20703;-68
2023/03/27 08:37:43;;;;;;;1.70;1.23;;;4.50;99.90;;;;;;4978907;28;20209;-68
2023/03/27 08:40:25;;;;;;;1.50;1.17;;;4.60;99.90;;;;;;4978798;28;20267;-69
2023/03/27 08:42:55;;;;;;;0.90;0.90;;;4.50;99.90;;;;;;4980699;28;20200;-67
2023/03/27 08:45:28;;;;;;;0.90;0.90;;;4.40;99.90;;;;;;4977387;28;20693;-68
2023/03/27 08:48:02;;;;;;;1.10;1.00;;;4.50;99.90;;;;;;4979421;28;20687;-66
2023/03/27 08:50:46;;;;;;;2.67;1.03;;;4.60;99.90;;;;;;4979606;28;20193;-66
2023/03/27 08:53:46;;;;;;;4.23;1.20;;;4.70;99.90;;;;;;4978283;28;20580;-68
2023/03/27 08:56:17;;;;;;;2.47;1.17;;;4.80;99.90;;;;;;4978863;28;20706;-68
2023/03/27 08:58:43;;;;;;;3.00;1.27;;;4.90;99.90;;;;;;4976439;28;20204;-69
2023/03/27 09:01:21;;;;;;;3.57;1.20;;;5.00;99.90;;;;;;4978919;28;20287;-69
2023/03/27 09:04:02;;;;;;;1.77;1.10;;;4.90;99.90;;;;;;4978445;28;20215;-71
2023/03/27 09:06:45;;;;;;;4.67;1.53;;;5.00;99.30;;;;;;4979085;28;20653;-70
2023/03/27 09:09:31;;;;;;;1.47;0.97;;;4.90;99.10;;;;;;4979304;28;20220;-69
2023/03/27 09:12:02;;;;;;;1.23;1.13;;;4.80;99.90;;;;;;4976704;28;20506;-69
2023/03/27 09:14:36;;;;;;;1.20;1.10;;;4.80;99.50;;;;;;4984879;28;20193;-70
2023/03/27 09:17:21;;;;;;;1.17;1.07;;;4.90;98.40;;;;;;4987588;28;20287;-68
2023/03/27 09:19:58;;;;;;;1.60;1.23;;;5.20;98.20;;;;;;4987838;28;20230;-69
2023/03/27 09:22:35;;;;;;;0.90;0.90;;;5.30;98.90;;;;;;4985998;28;20206;-70
2023/03/27 09:25:07;;;;;;;2.60;1.53;;;5.20;97.80;;;;;;4987627;28;20566;-69
2023/03/27 09:27:35;;;;;;;3.43;1.37;;;4.90;97.90;;;;;;4987362;28;20681;-69
2023/03/27 09:30:18;;;;;;;1.90;1.37;;;5.10;98.20;;;;;;4985684;28;20594;-69
2023/03/27 09:32:47;;;;;;;1.90;1.23;;;5.30;98.10;;;;;;4987801;28;20212;-70
2023/03/27 09:35:19;;;;;;;1.03;0.93;;;5.50;96.90;;;;;;4986806;28;20255;-69
2023/03/27 09:37:52;;;;;;;1.17;1.07;;;5.50;96.80;;;;;;4987904;28;20205;-69
2023/03/27 09:40:29;;;;;;;2.43;1.40;;;5.30;97.10;;;;;;4988120;28;20685;-68
2023/03/27 09:42:59;;;;;;;1.93;1.03;;;5.40;95.30;;;;;;4987377;28;20199;-68
2023/03/27 09:45:25;;;;;;;1.47;0.77;;;5.50;96.00;;;;;;4987523;28;20204;-69
2023/03/27 09:48:00;;;;;;;1.10;1.00;;;5.60;94.50;;;;;;4986791;28;20274;-68
2023/03/27 09:50:40;;;;;;;1.53;0.80;;;5.50;93.20;;;;;;4986569;28;20196;-69
2023/03/27 09:53:16;;;;;;;1.17;1.10;;;5.70;94.20;;;;;;4986868;28;20283;-69
2023/03/27 09:55:51;;;;;;;1.63;1.13;;;5.50;94.80;;;;;;4986829;28;20204;-68
2023/03/27 09:58:24;;;;;;;2.50;1.30;;;5.40;95.30;;;;;;4987037;28;20204;-70
2023/03/27 10:01:25;;;;;;;1.60;0.90;;;5.30;95.80;;;;;;4986704;28;20286;-69
2023/03/27 10:03:55;;;;;;;3.47;1.27;;;5.30;94.80;;;;;;4987109;28;20212;-69
2023/03/27 10:06:29;;;;;;;3.43;1.30;;;5.70;94.00;;;;;;4987000;28;20201;-69
2023/03/27 10:08:59;;;;;;;1.87;0.90;;;6.10;93.00;;;;;;4984958;28;20221;-69
2023/03/27 10:11:30;;;;;;;1.47;0.90;;;6.20;93.00;;;;;;4987653;28;20204;-69
2023/03/27 10:13:59;;;;;;;0.83;0.83;;;6.40;93.10;;;;;;4987561;28;20204;-69
2023/03/27 10:16:26;;;;;;;2.43;1.37;;;6.30;91.70;;;;;;4985578;28;20250;-68
2023/03/27 10:18:55;;;;;;;3.00;0.83;;;6.20;92.30;;;;;;4986873;28;20287;-68
2023/03/27 10:21:59;;;;;;;2.07;1.10;;;6.10;93.00;;;;;;4986181;28;20208;-68
2023/03/27 10:24:33;;;;;;;2.37;0.97;;;6.10;93.90;;;;;;4943097;28;20288;-67
2023/03/27 10:27:10;;;;;;;2.30;1.00;;;6.40;93.60;;;;;;4987103;28;20246;-68
2023/03/27 10:29:36;;;;;;;1.00;1.00;;;6.60;91.60;;;;;;4986719;28;20214;-69
2023/03/27 10:32:04;;;;;;;2.33;0.83;;;6.50;91.40;;;;;;4984492;28;20196;-69
2023/03/27 10:34:51;;;;;;;0.73;0.73;;;6.20;91.60;;;;;;4970648;28;20627;-69
2023/03/27 10:37:33;;;;;;;1.47;1.20;;;6.00;91.90;;;;;;4984325;28;20290;-69
2023/03/27 10:40:08;;;;;;;1.20;1.07;;;6.10;92.00;;;;;;4985971;28;20200;-69
2023/03/27 10:42:35;;;;;;;0.97;0.93;;;6.20;90.80;;;;;;4985483;28;20243;-69
2023/03/27 10:45:01;;;;;;;0.77;0.77;;;6.20;90.90;;;;;;4986051;28;20211;-68
2023/03/27 10:47:32;;;;;;;0.67;0.67;;;6.20;91.40;;;;;;4985995;28;20208;-68
2023/03/27 10:49:57;;;;;;;1.00;1.00;;;6.10;90.70;;;;;;4984430;28;20303;-68
2023/03/27 10:52:33;;;;;;;2.93;1.43;;;6.30;90.70;;;;;;4986339;28;20746;-68
2023/03/27 10:55:21;;;;;;;6.60;1.27;;;6.20;91.00;;;;;;4986608;28;20195;-68
2023/03/27 10:57:53;;;;;;;1.30;1.20;;;6.10;92.20;;;;;;4986005;28;20200;-70
2023/03/27 11:00:31;;;;;;;1.20;1.20;;;6.10;91.40;;;;;;4985960;28;20200;-68
2023/03/27 11:03:10;;;;;;;2.63;1.30;;;6.10;91.60;;;;;;4985421;28;20208;-77
2023/03/27 11:05:40;;;;;;;2.23;1.47;;;6.30;89.90;;;;;;4984800;28;20225;-77
2023/03/27 11:08:20;;;;;;;1.40;1.30;;;6.30;91.00;;;;;;4987179;28;20254;-77
2023/03/27 11:10:48;;;;;;;1.80;0.97;;;6.80;90.30;;;;;;4985257;28;20607;-77
2023/03/27 11:13:22;;;;;;;0.80;0.80;;;7.20;85.60;;;;;;4987685;28;20573;-75
2023/03/27 11:16:08;;;;;;;5.67;1.17;;;7.50;84.30;;;;;;4991321;28;20203;-74
2023/03/27 11:18:46;;;;;;;2.50;0.80;;;7.90;80.40;;;;;;4992718;28;20222;-74
2023/03/27 11:21:19;;;;;;;3.40;0.90;;;8.10;76.60;;;;;;4993295;28;20247;-75
2023/03/27 11:23:54;;;;;;;2.17;1.20;;;8.00;74.90;;;;;;4992682;28;20195;-77
2023/03/27 11:26:23;;;;;;;1.07;0.80;;;7.70;73.00;;;;;;4992805;28;20283;-74
2023/03/27 11:29:19;;;;;;;0.50;0.50;;;7.60;73.60;;;;;;4992658;28;20220;-73
2023/03/27 11:31:51;;;;;;;2.57;0.60;;;7.90;72.20;;;;;;4992635;28;20216;-74
2023/03/27 11:34:29;;;;;;;1.23;0.93;;;8.40;70.40;;;;;;4992657;28;20254;-76
2023/03/27 11:37:09;;;;;;;1.73;0.90;;;8.90;71.20;;;;;;4992774;28;20219;-73
2023/03/27 11:39:44;;;;;;;2.17;1.13;;;9.30;67.30;;;;;;4995015;28;20261;-74
2023/03/27 11:42:17;;;;;;;1.90;0.90;;;9.40;67.30;;;;;;4990733;28;20283;-74
2023/03/27 11:44:44;;;;;;;4.20;0.90;;;9.20;65.10;;;;;;4992292;28;20363;-75
2023/03/27 11:47:21;;;;;;;2.23;1.10;;;9.00;67.20;;;;;;4991734;28;20271;-77
2023/03/27 11:50:07;;;;;;;1.07;0.97;;;9.30;69.30;;;;;;4991947;28;20224;-76
2023/03/27 11:53:11;;;;;;;1.67;0.60;;;8.70;65.70;;;;;;4992843;28;20559;-76
2023/03/27 11:55:55;;;;;;;1.00;0.90;;;8.80;67.90;;;;;;4989626;28;20262;-74
2023/03/27 11:58:47;;;;;;;1.43;0.73;;;8.60;67.70;;;;;;4989382;28;20288;-74
2023/03/27 12:01:27;;;;;;;1.90;1.00;;;8.30;67.20;;;;;;4989560;28;20200;-72
2023/03/27 12:04:13;;;;;;;2.53;0.90;;;7.80;68.90;;;;;;4990118;28;20227;-73
2023/03/27 12:06:46;;;;;;;3.03;0.70;;;7.20;68.40;;;;;;4989747;28;20552;-75
2023/03/27 12:09:36;;;;;;;2.77;1.13;;;6.80;71.30;;;;;;4993109;28;20309;-78
2023/03/27 12:12:46;;;;;;;2.73;0.93;;;6.70;73.40;;;;;;4991532;28;20251;-80
2023/03/27 12:15:50;;;;;;;1.63;0.80;;;6.40;74.70;;;;;;4991505;28;20196;-77
2023/03/27 12:18:59;;;;;;;0.77;0.67;;;7.20;76.40;;;;;;4992650;28;20235;-78
2023/03/27 12:21:52;;;;;;;1.33;0.80;;;8.10;74.20;;;;;;4989232;28;20212;-78
2023/03/27 12:25:02;;;;;;;1.30;0.60;;;8.30;73.50;;;;;;4991397;28;20611;-78
2023/03/27 12:27:55;;;;;;;2.00;0.90;;;9.20;71.80;;;;;;4969955;28;20217;-79
2023/03/27 12:30:48;;;;;;;3.70;0.87;;;9.80;69.10;;;;;;4988315;28;20776;-78
2023/03/27 12:33:23;;;;;;;1.83;0.80;;;9.90;66.10;;;;;;4988606;28;20250;-73
2023/03/27 12:35:53;;;;;;;2.27;1.00;;;10.10;65.40;;;;;;4988248;28;20223;-72
2023/03/27 12:38:37;;;;;;;6.93;1.13;;;10.40;64.40;;;;;;4989230;28;20750;-78
2023/03/27 12:41:09;;;;;;;1.60;0.83;;;10.60;62.30;;;;;;4989706;28;20212;-79
2023/03/27 12:43:39;;;;;;;1.00;0.90;;;9.50;62.90;;;;;;4989182;28;20218;-78
2023/03/27 12:46:13;;;;;;;2.20;1.10;;;8.90;63.90;;;;;;4989546;28;20573;-78
2023/03/27 12:49:06;;;;;;;1.33;0.80;;;9.50;64.60;;;;;;4986351;28;20587;-77
2023/03/27 12:51:50;;;;;;;1.40;1.30;;;9.50;64.40;;;;;;4986424;28;20568;-77
2023/03/27 12:54:37;;;;;;;0.90;0.90;;;8.60;65.90;;;;;;4987525;28;20275;-78
2023/03/27 12:57:17;;;;;;;2.93;0.70;;;7.90;69.00;;;;;;4989988;28;20721;-78
2023/03/27 13:00:08;;;;;;;1.83;0.70;;;7.50;70.20;;;;;;4984371;28;20616;-76
2023/03/27 13:02:44;;;;;;;2.77;0.90;;;7.10;70.10;;;;;;4985794;28;20298;-74
2023/03/27 13:05:37;;;;;;;1.63;0.70;;;6.80;80.50;;;;;;4987602;28;20207;-75
2023/03/27 13:08:32;;;;;;;1.53;0.73;;;6.50;88.10;;;;;;4989641;28;20209;-73
2023/03/27 13:11:15;;;;;;;1.23;0.60;;;6.90;86.20;;;;;;4990181;28;20289;-73
2023/03/27 13:14:18;;;;;;;0.50;0.50;;;8.00;74.20;;;;;;4985549;28;20716;-74
2023/03/27 13:16:51;;;;;;;1.73;0.87;;;9.30;65.20;;;;;;4988974;28;20200;-74
2023/03/27 13:19:38;;;;;;;0.77;0.63;;;10.30;62.50;;;;;;4971256;28;20316;-83
2023/03/27 13:22:22;;;;;;;2.43;0.83;;;11.50;57.20;;;;;;4968304;28;20207;-75
2023/03/27 13:25:25;;;;;;;1.33;1.00;;;11.60;57.30;;;;;;4986190;28;20266;-73